createdAt,value
2018-04-15T00:00:51.600Z,40.70
2018-04-15T00:03:54.970Z,48.47
2018-04-15T00:06:59.142Z,43.70
2018-04-15T00:10:02.497Z,46.37
2018-04-15T00:13:06.748Z,47.97
2018-04-15T00:16:10.120Z,44.70
2018-04-15T00:19:14.253Z,54.70
2018-04-15T00:22:17.660Z,57.17
2018-04-15T00:25:21.049Z,60.53
2018-04-15T00:28:24.403Z,60.83
2018-04-15T00:31:27.847Z,58.33
2018-04-15T00:34:31.210Z,42.73
2018-04-15T00:37:34.577Z,48.30
2018-04-15T00:40:37.944Z,43.70
2018-04-15T00:43:41.353Z,43.33
2018-04-15T00:46:44.705Z,43.60
2018-04-15T00:49:48.069Z,40.77
2018-04-15T00:52:51.618Z,39.47
2018-04-15T00:55:55.736Z,44.30
2018-04-15T00:58:59.862Z,41.43
2018-04-15T01:02:03.985Z,45.13
2018-04-15T01:05:08.125Z,49.80
2018-04-15T01:08:11.482Z,43.33
2018-04-15T01:11:15.584Z,49.40
2018-04-15T01:14:18.937Z,55.13
2018-04-15T01:17:22.308Z,48.80
2018-04-15T01:20:26.428Z,53.93
2018-04-15T01:23:30.556Z,49.13
2018-04-15T01:26:33.908Z,44.70
2018-04-15T01:29:37.306Z,36.53
2018-04-15T01:32:40.670Z,44.93
2018-04-15T01:35:44.010Z,39.40
2018-04-15T01:38:48.127Z,42.73
2018-04-15T01:41:53.009Z,48.73
2018-04-15T01:44:56.385Z,45.13
2018-04-15T01:48:00.503Z,41.37
2018-04-15T01:51:04.627Z,44.97
2018-04-15T01:54:08.808Z,44.37
2018-04-15T01:57:12.173Z,43.03
2018-04-15T02:00:15.532Z,41.30
2018-04-15T02:03:19.659Z,40.27
2018-04-15T02:06:23.791Z,48.87
2018-04-15T02:09:27.158Z,48.83
2018-04-15T02:12:30.525Z,50.60
2018-04-15T02:15:33.888Z,50.00
2018-04-15T02:18:37.250Z,58.33
2018-04-15T02:21:41.435Z,56.33
2018-04-15T02:24:44.798Z,58.23
2018-04-15T02:27:48.942Z,64.30
2018-04-15T02:30:52.309Z,64.33
2018-04-15T02:33:56.441Z,65.87
2018-04-15T02:36:59.857Z,62.80
2018-04-15T02:40:03.208Z,66.43
2018-04-15T02:43:06.566Z,65.07
2018-04-15T02:46:09.928Z,60.97
2018-04-15T02:49:13.298Z,82.83
2018-04-15T02:52:16.640Z,71.30
2018-04-15T02:55:19.988Z,82.73
2018-04-15T02:58:23.389Z,80.77
2018-04-15T03:01:26.750Z,99.00
2018-04-15T03:04:30.114Z,111.53
2018-04-15T03:07:34.249Z,109.60
2018-04-15T03:10:37.600Z,122.03
2018-04-15T03:13:40.956Z,124.73
2018-04-15T03:16:44.321Z,114.47
2018-04-15T03:19:48.441Z,106.67
2018-04-15T03:22:52.561Z,103.60
2018-04-15T03:25:56.688Z,102.23
2018-04-15T03:29:00.057Z,108.87
2018-04-15T03:32:03.417Z,92.03
2018-04-15T03:35:06.812Z,94.67
2018-04-15T03:38:10.173Z,107.13
2018-04-15T03:41:14.297Z,101.83
2018-04-15T03:44:18.425Z,106.60
2018-04-15T03:47:21.786Z,103.17
2018-04-15T03:50:26.680Z,101.70
2018-04-15T03:53:30.155Z,89.93
2018-04-15T03:56:33.516Z,96.03
2018-04-15T03:59:36.869Z,91.63
2018-04-15T04:02:40.223Z,90.43
2018-04-15T04:05:43.613Z,96.17
2018-04-15T04:08:46.967Z,96.70
2018-04-15T04:11:50.323Z,92.43
2018-04-15T04:14:53.686Z,92.40
2018-04-15T04:18:14.855Z,91.87
2018-04-15T04:21:36.740Z,92.83
2018-04-15T04:24:57.936Z,90.07
2018-04-15T04:28:01.384Z,90.63
2018-04-15T04:31:04.762Z,77.73
2018-04-15T04:34:08.122Z,89.13
2018-04-15T04:37:11.484Z,93.13
2018-04-15T04:40:14.848Z,94.47
2018-04-15T04:43:18.283Z,85.43
2018-04-15T04:46:21.641Z,92.93
2018-04-15T04:49:25.005Z,94.50
2018-04-15T04:52:29.133Z,87.13
2018-04-15T04:55:32.502Z,89.17
2018-04-15T04:58:35.848Z,90.33
2018-04-15T05:01:39.213Z,85.50
2018-04-15T05:04:43.360Z,86.27
2018-04-15T05:07:46.784Z,76.70
2018-04-15T05:10:50.167Z,79.73
2018-04-15T05:13:53.725Z,81.20
2018-04-15T05:16:57.843Z,74.27
2018-04-15T05:20:01.973Z,77.43
2018-04-15T05:23:06.104Z,73.77
2018-04-15T05:26:09.456Z,75.17
2018-04-15T05:29:12.837Z,72.87
2018-04-15T05:32:16.228Z,79.17
2018-04-15T05:35:19.593Z,78.70
2018-04-15T05:38:22.973Z,77.30
2018-04-15T05:41:27.120Z,72.93
2018-04-15T05:44:30.471Z,76.67
2018-04-15T05:47:33.840Z,72.80
2018-04-15T05:50:37.209Z,76.70
2018-04-15T05:53:40.581Z,75.90
2018-04-15T05:56:43.973Z,74.70
2018-04-15T05:59:47.359Z,75.30
2018-04-15T06:02:51.694Z,69.07
2018-04-15T06:05:55.077Z,72.23
2018-04-15T06:08:58.431Z,68.23
2018-04-15T06:12:01.788Z,67.70
2018-04-15T06:15:05.143Z,64.60
2018-04-15T06:18:08.496Z,71.27
2018-04-15T06:21:11.866Z,64.13
2018-04-15T06:24:15.227Z,62.13
2018-04-15T06:27:18.601Z,61.03
2018-04-15T06:30:22.741Z,55.40
2018-04-15T06:33:26.094Z,55.57
2018-04-15T06:36:29.452Z,53.67
2018-04-15T06:39:32.811Z,51.80
2018-04-15T06:42:36.944Z,55.80
2018-04-15T06:45:41.080Z,54.17
2018-04-15T06:48:44.435Z,60.87
2018-04-15T06:51:47.879Z,54.77
2018-04-15T06:54:51.266Z,51.10
2018-04-15T06:57:54.667Z,49.90
2018-04-15T07:00:58.038Z,51.47
2018-04-15T07:04:01.389Z,57.57
2018-04-15T07:07:04.869Z,51.63
2018-04-15T07:10:08.265Z,54.63
2018-04-15T07:13:11.632Z,50.83
2018-04-15T07:16:14.996Z,52.27
2018-04-15T07:19:18.496Z,55.83
2018-04-15T07:22:21.883Z,49.17
2018-04-15T07:25:25.256Z,52.87
2018-04-15T07:28:29.385Z,52.37
2018-04-15T07:31:32.748Z,51.60
2018-04-15T07:34:36.124Z,54.50
2018-04-15T07:37:39.498Z,51.13
2018-04-15T07:40:42.875Z,49.27
2018-04-15T07:43:47.013Z,48.53
2018-04-15T07:46:50.399Z,46.90
2018-04-15T07:49:53.778Z,48.10
2018-04-15T07:52:57.913Z,43.03
2018-04-15T07:56:01.314Z,38.60
2018-04-15T07:59:04.714Z,40.90
2018-04-15T08:02:08.093Z,39.67
2018-04-15T08:05:12.225Z,38.47
2018-04-15T08:08:16.354Z,39.53
2018-04-15T08:11:19.737Z,35.93
2018-04-15T08:14:23.862Z,33.17
2018-04-15T08:17:27.224Z,35.97
2018-04-15T08:20:30.610Z,35.87
2018-04-15T08:23:33.990Z,36.03
2018-04-15T08:26:38.217Z,33.50
2018-04-15T08:29:41.597Z,32.53
2018-04-15T08:32:45.000Z,30.57
2018-04-15T08:35:48.384Z,31.03
2018-04-15T08:38:51.749Z,28.90
2018-04-15T08:41:55.141Z,29.33
2018-04-15T08:44:58.504Z,27.77
2018-04-15T08:48:01.914Z,30.53
2018-04-15T08:51:05.262Z,26.17
2018-04-15T08:54:09.451Z,22.07
2018-04-15T08:57:13.592Z,19.90
2018-04-15T09:00:16.967Z,20.90
2018-04-15T09:03:20.320Z,20.20
2018-04-15T09:06:23.697Z,16.73
2018-04-15T09:09:27.857Z,16.97
2018-04-15T09:12:31.221Z,18.47
2018-04-15T09:15:35.359Z,22.13
2018-04-15T09:18:38.846Z,16.57
2018-04-15T09:21:42.205Z,17.40
2018-04-15T09:24:45.570Z,17.67
2018-04-15T09:27:48.946Z,15.97
2018-04-15T09:30:57.738Z,14.40
2018-04-15T09:34:01.107Z,15.30
2018-04-15T09:37:04.708Z,14.40
2018-04-15T09:40:08.094Z,19.03
2018-04-15T09:43:11.464Z,16.63
2018-04-15T09:46:15.645Z,17.77
2018-04-15T09:49:19.017Z,19.50
2018-04-15T09:52:22.412Z,20.53
2018-04-15T09:55:25.820Z,17.73
2018-04-15T09:58:29.327Z,19.03
2018-04-15T10:01:32.750Z,19.70
2018-04-15T10:04:36.126Z,19.97
2018-04-15T10:07:39.492Z,20.63
2018-04-15T10:10:42.871Z,21.80
2018-04-15T10:13:47.030Z,21.33
2018-04-15T10:16:50.474Z,21.27
2018-04-15T10:19:53.827Z,23.30
2018-04-15T10:22:57.220Z,23.20
2018-04-15T10:26:00.574Z,22.93
2018-04-15T10:29:03.967Z,26.03
2018-04-15T10:32:07.343Z,22.83
2018-04-15T10:35:10.712Z,23.03
2018-04-15T10:38:14.100Z,24.00
2018-04-15T10:41:18.251Z,24.67
2018-04-15T10:44:21.833Z,21.83
2018-04-15T10:47:25.257Z,24.17
2018-04-15T10:50:28.613Z,20.33
2018-04-15T10:53:32.744Z,24.47
2018-04-15T10:56:36.126Z,20.70
2018-04-15T10:59:40.252Z,21.60
2018-04-15T11:02:44.408Z,23.00
2018-04-15T11:05:47.845Z,24.30
2018-04-15T11:08:51.244Z,25.47
2018-04-15T11:11:54.663Z,26.73
2018-04-15T11:14:58.811Z,25.77
2018-04-15T11:18:02.201Z,23.90
2018-04-15T11:21:05.693Z,26.53
2018-04-15T11:24:09.853Z,27.17
2018-04-15T11:27:13.329Z,26.30
2018-04-15T11:30:16.705Z,25.40
2018-04-15T11:36:30.527Z,26.63
2018-04-15T11:39:33.887Z,28.17
2018-04-15T11:42:37.278Z,27.60
2018-04-15T11:45:40.689Z,27.50
2018-04-15T11:48:44.065Z,30.20
2018-04-15T11:51:48.226Z,30.47
2018-04-15T11:54:51.619Z,30.27
2018-04-15T11:57:55.125Z,32.83
2018-04-15T12:00:58.499Z,28.87
2018-04-15T12:04:01.896Z,29.00
2018-04-15T12:07:05.487Z,30.00
2018-04-15T12:10:09.658Z,29.37
2018-04-15T12:13:13.024Z,31.77
2018-04-15T12:16:16.424Z,28.47
2018-04-15T12:19:19.809Z,31.77
2018-04-15T12:22:23.948Z,31.40
2018-04-15T12:25:27.543Z,31.90
2018-04-15T12:28:30.916Z,33.63
2018-04-15T12:31:34.321Z,34.43
2018-04-15T12:34:38.802Z,33.60
2018-04-15T12:37:42.220Z,32.37
2018-04-15T12:40:45.903Z,37.03
2018-04-15T12:43:49.342Z,34.77
2018-04-15T12:46:52.735Z,33.60
2018-04-15T12:49:56.157Z,36.13
2018-04-15T12:53:00.311Z,34.17
2018-04-15T12:56:03.799Z,33.20
2018-04-15T12:59:07.318Z,35.27
2018-04-15T13:02:10.778Z,36.53
2018-04-15T13:05:14.948Z,38.67
2018-04-15T13:08:18.323Z,41.50
2018-04-15T13:11:21.700Z,41.80
2018-04-15T13:14:25.103Z,42.67
2018-04-15T13:17:29.441Z,43.20
2018-04-15T13:20:32.883Z,46.07
2018-04-15T13:23:36.255Z,44.37
2018-04-15T13:26:39.735Z,41.93
2018-04-15T13:29:43.106Z,44.73
2018-04-15T13:32:46.521Z,48.20
2018-04-15T13:35:50.668Z,51.60
2018-04-15T13:38:54.121Z,48.87
2018-04-15T13:41:57.511Z,47.87
2018-04-15T13:45:00.961Z,44.23
2018-04-15T13:48:04.324Z,47.17
2018-04-15T13:51:07.705Z,43.90
2018-04-15T13:54:11.077Z,42.63
2018-04-15T13:57:14.492Z,43.60
2018-04-15T14:00:17.913Z,43.37
2018-04-15T14:03:21.306Z,46.67
2018-04-15T14:06:24.687Z,42.47
2018-04-15T14:09:28.051Z,44.00
2018-04-15T14:12:31.445Z,47.73
2018-04-15T14:15:35.571Z,50.30
2018-04-15T14:18:38.936Z,48.90
2018-04-15T14:21:42.316Z,49.43
2018-04-15T14:24:45.682Z,51.33
2018-04-15T14:27:49.190Z,54.03
2018-04-15T14:30:52.606Z,47.13
2018-04-15T14:33:56.345Z,44.37
2018-04-15T14:36:59.809Z,48.00
2018-04-15T14:40:03.280Z,41.90
2018-04-15T14:43:06.665Z,44.90
2018-04-15T14:46:10.847Z,44.57
2018-04-15T14:49:14.242Z,49.87
2018-04-15T14:52:17.622Z,46.70
2018-04-15T14:55:21.128Z,45.10
2018-04-15T14:58:24.606Z,48.83
2018-04-15T15:01:28.017Z,49.57
2018-04-15T15:04:31.396Z,48.93
2018-04-15T15:07:35.545Z,47.53
2018-04-15T15:10:38.916Z,47.60
2018-04-15T15:13:43.112Z,47.73
2018-04-15T15:16:46.492Z,47.53
2018-04-15T15:19:51.393Z,43.30
2018-04-15T15:22:54.769Z,46.87
2018-04-15T15:25:58.143Z,45.23
2018-04-15T15:29:01.583Z,47.23
2018-04-15T15:32:05.094Z,50.07
2018-04-15T15:35:08.486Z,48.43
2018-04-15T15:38:11.872Z,48.53
2018-04-15T15:41:16.185Z,50.10
2018-04-15T15:44:20.322Z,48.10
2018-04-15T15:47:23.794Z,46.80
2018-04-15T15:50:27.150Z,44.83
2018-04-15T15:53:30.534Z,48.60
2018-04-15T15:56:33.969Z,46.27
2018-04-15T15:59:37.401Z,47.60
2018-04-15T16:02:41.645Z,45.50
2018-04-15T16:05:45.032Z,52.13
2018-04-15T16:08:49.186Z,50.67
2018-04-15T16:11:52.654Z,48.90
2018-04-15T16:14:56.066Z,52.73
2018-04-15T16:17:59.432Z,53.20
2018-04-15T16:21:03.622Z,53.87
2018-04-15T16:24:07.073Z,48.80
2018-04-15T16:27:10.544Z,52.97
2018-04-15T16:30:13.927Z,51.00
2018-04-15T16:33:17.347Z,55.53
2018-04-15T16:36:20.739Z,55.10
2018-04-15T16:39:24.144Z,53.97
2018-04-15T16:42:28.382Z,55.50
2018-04-15T16:45:32.589Z,49.00
2018-04-15T16:48:35.963Z,50.67
2018-04-15T16:51:39.381Z,51.43
2018-04-15T16:54:42.749Z,54.53
2018-04-15T16:57:46.133Z,54.03
2018-04-15T17:00:49.523Z,52.47
2018-04-15T17:03:52.933Z,51.47
2018-04-15T17:06:56.309Z,56.83
2018-04-15T17:09:59.675Z,54.20
2018-04-15T17:13:03.109Z,53.50
2018-04-15T17:16:06.501Z,55.43
2018-04-15T17:19:10.628Z,55.17
2018-04-15T17:22:14.035Z,56.23
2018-04-15T17:25:17.458Z,60.00
2018-04-15T17:28:20.796Z,57.87
2018-04-15T17:31:24.168Z,55.30
2018-04-15T17:34:27.588Z,55.07
2018-04-15T17:37:30.960Z,64.63
2018-04-15T17:40:34.321Z,56.40
2018-04-15T17:43:37.730Z,58.50
2018-04-15T17:46:41.098Z,56.57
2018-04-15T17:49:45.263Z,58.97
2018-04-15T17:52:48.639Z,57.90
2018-04-15T17:55:52.021Z,56.73
2018-04-15T17:58:56.187Z,56.67
2018-04-15T18:01:59.515Z,57.97
2018-04-15T18:05:04.405Z,55.17
2018-04-15T18:08:07.802Z,55.70
2018-04-15T18:11:11.177Z,59.47
2018-04-15T18:14:15.310Z,57.73
2018-04-15T18:17:18.731Z,61.13
2018-04-15T18:20:22.080Z,60.33
2018-04-15T18:23:25.445Z,61.93
2018-04-15T18:26:28.832Z,61.20
2018-04-15T18:29:32.217Z,65.10
2018-04-15T18:32:35.630Z,63.40
2018-04-15T18:35:39.012Z,61.50
2018-04-15T18:38:42.379Z,67.07
2018-04-15T18:41:45.815Z,68.10
2018-04-15T18:44:49.188Z,68.70
2018-04-15T18:47:53.314Z,75.17
2018-04-15T18:50:57.461Z,72.03
2018-04-15T18:54:00.847Z,77.20
2018-04-15T18:57:04.233Z,85.47
2018-04-15T19:00:08.371Z,85.20
2018-04-15T19:03:11.754Z,78.17
2018-04-15T19:06:15.143Z,92.53
2018-04-15T19:09:19.293Z,80.90
2018-04-15T19:12:22.770Z,88.73
2018-04-15T19:15:26.298Z,91.63
2018-04-15T19:18:29.708Z,95.07
2018-04-15T19:21:33.100Z,92.97
2018-04-15T19:24:36.589Z,97.03
2018-04-15T19:27:40.028Z,90.10
2018-04-15T19:30:43.385Z,98.50
2018-04-15T19:33:46.812Z,91.87
2018-04-15T19:36:50.225Z,89.07
2018-04-15T19:39:53.597Z,89.90
2018-04-15T19:42:56.978Z,97.97
2018-04-15T19:46:00.360Z,97.03
2018-04-15T19:49:04.581Z,89.20
2018-04-15T19:52:08.741Z,95.57
2018-04-15T19:55:12.304Z,97.23
2018-04-15T19:58:16.625Z,89.07
2018-04-15T20:01:20.836Z,82.13
2018-04-15T20:04:24.977Z,96.47
2018-04-15T20:07:28.492Z,95.07
2018-04-15T20:10:31.874Z,86.07
2018-04-15T20:13:35.267Z,94.27
2018-04-15T20:16:39.407Z,89.13
2018-04-15T20:19:42.909Z,95.27
2018-04-15T20:22:47.029Z,104.67
2018-04-15T20:25:50.631Z,112.17
2018-04-15T20:28:54.007Z,106.47
2018-04-15T20:31:58.447Z,115.53
2018-04-15T20:35:01.906Z,109.43
2018-04-15T20:38:05.275Z,111.57
2018-04-15T20:41:08.650Z,117.07
2018-04-15T20:44:12.053Z,110.40
2018-04-15T20:47:15.467Z,111.83
2018-04-15T20:50:18.837Z,113.17
2018-04-15T20:53:22.212Z,109.90
2018-04-15T20:56:26.350Z,105.40
2018-04-15T20:59:30.473Z,102.80
2018-04-15T21:02:33.896Z,103.70
2018-04-15T21:05:37.265Z,92.77
2018-04-15T21:08:41.409Z,106.10
2018-04-15T21:11:44.800Z,103.40
2018-04-15T21:14:48.184Z,99.87
2018-04-15T21:17:52.318Z,95.93
2018-04-15T21:20:55.814Z,102.67
2018-04-15T21:23:59.181Z,109.17
2018-04-15T21:27:03.319Z,91.40
2018-04-15T21:30:06.711Z,89.43
2018-04-15T21:33:10.855Z,87.70
2018-04-15T21:36:14.261Z,85.07
2018-04-15T21:39:17.660Z,78.23
2018-04-15T21:42:21.039Z,78.43
2018-04-15T21:45:24.407Z,77.33
2018-04-15T21:48:27.781Z,75.60
2018-04-15T21:51:31.142Z,76.00
2018-04-15T21:54:34.516Z,77.07
2018-04-15T21:57:38.658Z,85.67
2018-04-15T22:00:42.038Z,79.93
2018-04-15T22:03:46.164Z,79.70
2018-04-15T22:06:49.589Z,78.87
2018-04-15T22:09:52.971Z,83.50
2018-04-15T22:13:12.425Z,92.37
2018-04-15T22:16:16.766Z,79.07
2018-04-15T22:19:20.135Z,77.50
2018-04-15T22:22:23.489Z,78.90
2018-04-15T22:25:26.873Z,73.57
2018-04-15T22:28:30.230Z,82.27
2018-04-15T22:31:33.595Z,83.03
2018-04-15T22:34:36.969Z,79.90
2018-04-15T22:37:40.418Z,75.23
2018-04-15T22:40:45.297Z,78.27
2018-04-15T22:43:48.837Z,84.00
2018-04-15T22:46:52.305Z,80.63
2018-04-15T22:50:01.248Z,73.93
2018-04-15T22:53:04.593Z,80.87
2018-04-15T22:56:10.233Z,76.63
2018-04-15T22:59:14.044Z,82.80
2018-04-15T23:02:17.406Z,76.27
2018-04-15T23:05:20.791Z,81.40
2018-04-15T23:08:24.219Z,80.23
2018-04-15T23:11:27.593Z,83.47
2018-04-15T23:14:30.944Z,80.63
2018-04-15T23:17:34.327Z,89.47
2018-04-15T23:20:37.686Z,87.37
2018-04-15T23:23:41.928Z,78.00
2018-04-15T23:26:45.400Z,81.03
2018-04-15T23:29:49.541Z,90.17
2018-04-15T23:32:52.887Z,87.07
2018-04-15T23:35:57.744Z,89.07
2018-04-15T23:39:01.886Z,90.73
2018-04-15T23:42:05.243Z,83.40
2018-04-15T23:45:08.602Z,84.63
2018-04-15T23:48:11.973Z,101.60
2018-04-15T23:51:15.345Z,123.17
2018-04-15T23:54:18.710Z,165.83
2018-04-15T23:57:22.069Z,112.23
